sensor_id;sensor_type;location;lat;lon;timestamp;noise_LAeq;noise_LA_min;noise_LA_max;noise_LA01;noise_LA95
76338;Laerm;20358;50.272;19.026;2024-01-30T00:01:36;42.61;35.52;61.49;;
76338;Laerm;20358;50.272;19.026;2024-01-30T00:04:44;42.43;35.45;59.96;;
76338;Laerm;20358;50.272;19.026;2024-01-30T00:07:51;38.16;35.54;48.73;;
76338;Laerm;20358;50.272;19.026;2024-01-30T00:11:02;40.11;35.41;55.90;;
76338;Laerm;20358;50.272;19.026;2024-01-30T00:14:08;41.93;35.80;56.80;;
76338;Laerm;20358;50.272;19.026;2024-01-30T00:17:16;41.00;35.61;56.97;;
76338;Laerm;20358;50.272;19.026;2024-01-30T00:20:24;40.46;35.27;56.36;;
76338;Laerm;20358;50.272;19.026;2024-01-30T00:23:32;42.85;35.46;63.67;;
76338;Laerm;20358;50.272;19.026;2024-01-30T00:26:41;47.98;36.11;68.81;;
76338;Laerm;20358;50.272;19.026;2024-01-30T00:29:49;43.92;35.58;63.91;;
76338;Laerm;20358;50.272;19.026;2024-01-30T00:32:56;44.82;36.26;60.90;;
76338;Laerm;20358;50.272;19.026;2024-01-30T00:36:05;38.30;35.21;54.78;;
76338;Laerm;20358;50.272;19.026;2024-01-30T00:39:11;42.33;35.65;65.03;;
76338;Laerm;20358;50.272;19.026;2024-01-30T00:42:22;41.44;35.67;57.85;;
76338;Laerm;20358;50.272;19.026;2024-01-30T00:45:30;40.49;36.07;54.73;;
76338;Laerm;20358;50.272;19.026;2024-01-30T00:48:37;39.08;35.72;49.93;;
76338;Laerm;20358;50.272;19.026;2024-01-30T00:51:44;40.97;36.08;56.24;;
76338;Laerm;20358;50.272;19.026;2024-01-30T00:54:52;39.41;35.10;56.66;;
76338;Laerm;20358;50.272;19.026;2024-01-30T00:58:02;37.44;35.49;44.96;;
76338;Laerm;20358;50.272;19.026;2024-01-30T01:01:10;39.09;35.95;54.02;;
76338;Laerm;20358;50.272;19.026;2024-01-30T01:04:18;38.81;35.36;48.02;;
76338;Laerm;20358;50.272;19.026;2024-01-30T01:07:26;38.95;34.85;54.99;;
76338;Laerm;20358;50.272;19.026;2024-01-30T01:10:38;37.33;35.05;48.41;;
76338;Laerm;20358;50.272;19.026;2024-01-30T01:13:49;41.86;35.39;57.04;;
76338;Laerm;20358;50.272;19.026;2024-01-30T01:16:56;42.15;35.53;61.43;;
76338;Laerm;20358;50.272;19.026;2024-01-30T01:20:05;40.53;35.97;56.80;;
76338;Laerm;20358;50.272;19.026;2024-01-30T01:23:14;40.76;35.76;56.38;;
76338;Laerm;20358;50.272;19.026;2024-01-30T01:26:22;43.20;36.33;58.53;;
76338;Laerm;20358;50.272;19.026;2024-01-30T01:29:31;41.26;35.21;55.73;;
76338;Laerm;20358;50.272;19.026;2024-01-30T01:32:39;42.36;35.53;62.79;;
76338;Laerm;20358;50.272;19.026;2024-01-30T01:35:52;38.59;35.04;52.62;;
76338;Laerm;20358;50.272;19.026;2024-01-30T01:39:00;40.26;35.94;57.55;;
76338;Laerm;20358;50.272;19.026;2024-01-30T01:42:07;41.99;35.21;53.87;;
76338;Laerm;20358;50.272;19.026;2024-01-30T01:45:18;39.36;35.12;55.73;;
76338;Laerm;20358;50.272;19.026;2024-01-30T01:48:26;39.98;35.08;53.28;;
76338;Laerm;20358;50.272;19.026;2024-01-30T01:51:37;38.60;36.10;46.57;;
76338;Laerm;20358;50.272;19.026;2024-01-30T01:54:45;40.89;36.16;57.64;;
76338;Laerm;20358;50.272;19.026;2024-01-30T01:57:54;38.07;35.19;48.89;;
76338;Laerm;20358;50.272;19.026;2024-01-30T02:01:05;41.78;35.63;59.94;;
76338;Laerm;20358;50.272;19.026;2024-01-30T02:04:13;42.03;36.59;55.37;;
76338;Laerm;20358;50.272;19.026;2024-01-30T02:07:21;40.98;35.30;53.62;;
76338;Laerm;20358;50.272;19.026;2024-01-30T02:10:29;50.30;35.41;66.18;;
76338;Laerm;20358;50.272;19.026;2024-01-30T02:13:36;39.82;35.57;49.54;;
76338;Laerm;20358;50.272;19.026;2024-01-30T02:16:46;40.77;35.83;54.66;;
76338;Laerm;20358;50.272;19.026;2024-01-30T02:19:53;40.59;36.06;56.62;;
76338;Laerm;20358;50.272;19.026;2024-01-30T02:23:05;38.39;35.99;41.95;;
76338;Laerm;20358;50.272;19.026;2024-01-30T02:26:12;45.25;35.87;56.79;;
76338;Laerm;20358;50.272;19.026;2024-01-30T02:29:20;43.01;36.34;59.53;;
76338;Laerm;20358;50.272;19.026;2024-01-30T02:32:27;42.98;36.56;60.75;;
76338;Laerm;20358;50.272;19.026;2024-01-30T02:35:35;40.34;35.69;59.06;;
76338;Laerm;20358;50.272;19.026;2024-01-30T02:38:45;44.63;35.49;62.09;;
76338;Laerm;20358;50.272;19.026;2024-01-30T02:41:53;40.46;35.87;59.54;;
76338;Laerm;20358;50.272;19.026;2024-01-30T02:45:00;42.92;35.55;57.84;;
76338;Laerm;20358;50.272;19.026;2024-01-30T02:48:08;41.03;36.58;56.92;;
76338;Laerm;20358;50.272;19.026;2024-01-30T02:51:15;39.44;36.24;47.09;;
76338;Laerm;20358;50.272;19.026;2024-01-30T02:54:25;40.24;35.77;53.00;;
76338;Laerm;20358;50.272;19.026;2024-01-30T02:57:33;44.29;36.68;60.97;;
76338;Laerm;20358;50.272;19.026;2024-01-30T03:00:41;39.14;35.66;53.52;;
76338;Laerm;20358;50.272;19.026;2024-01-30T03:03:48;40.06;35.97;57.30;;
76338;Laerm;20358;50.272;19.026;2024-01-30T03:06:55;40.03;35.75;57.51;;
76338;Laerm;20358;50.272;19.026;2024-01-30T03:10:07;42.16;36.00;54.96;;
76338;Laerm;20358;50.272;19.026;2024-01-30T03:13:14;42.89;36.78;58.56;;
76338;Laerm;20358;50.272;19.026;2024-01-30T03:16:21;42.86;36.88;59.61;;
76338;Laerm;20358;50.272;19.026;2024-01-30T03:19:30;44.92;36.83;60.52;;
76338;Laerm;20358;50.272;19.026;2024-01-30T03:22:36;44.94;36.94;60.05;;
76338;Laerm;20358;50.272;19.026;2024-01-30T03:25:47;42.74;36.62;54.60;;
76338;Laerm;20358;50.272;19.026;2024-01-30T03:28:53;45.40;37.07;59.63;;
76338;Laerm;20358;50.272;19.026;2024-01-30T03:32:01;45.00;38.31;57.27;;
76338;Laerm;20358;50.272;19.026;2024-01-30T03:35:09;42.75;37.44;56.65;;
76338;Laerm;20358;50.272;19.026;2024-01-30T03:38:17;45.20;38.05;55.91;;
76338;Laerm;20358;50.272;19.026;2024-01-30T03:41:27;45.58;38.52;55.14;;
76338;Laerm;20358;50.272;19.026;2024-01-30T03:44:35;44.89;37.69;56.62;;
76338;Laerm;20358;50.272;19.026;2024-01-30T03:47:44;43.87;38.38;58.18;;
76338;Laerm;20358;50.272;19.026;2024-01-30T03:50:52;47.86;37.20;65.47;;
76338;Laerm;20358;50.272;19.026;2024-01-30T03:53:59;45.09;37.54;56.78;;
76338;Laerm;20358;50.272;19.026;2024-01-30T03:57:09;47.31;37.88;59.51;;
76338;Laerm;20358;50.272;19.026;2024-01-30T04:00:17;46.05;38.85;60.36;;
76338;Laerm;20358;50.272;19.026;2024-01-30T04:03:25;47.07;37.73;61.63;;
76338;Laerm;20358;50.272;19.026;2024-01-30T04:06:32;45.94;38.06;56.63;;
76338;Laerm;20358;50.272;19.026;2024-01-30T04:09:40;46.98;38.47;58.11;;
76338;Laerm;20358;50.272;19.026;2024-01-30T04:12:50;48.16;39.46;59.81;;
76338;Laerm;20358;50.272;19.026;2024-01-30T04:16:00;46.32;39.30;58.56;;
76338;Laerm;20358;50.272;19.026;2024-01-30T04:19:08;48.54;39.53;59.70;;
76338;Laerm;20358;50.272;19.026;2024-01-30T04:22:15;48.30;39.89;58.95;;
76338;Laerm;20358;50.272;19.026;2024-01-30T04:25:22;49.27;42.32;58.45;;
76338;Laerm;20358;50.272;19.026;2024-01-30T04:28:33;48.85;41.18;58.40;;
76338;Laerm;20358;50.272;19.026;2024-01-30T04:31:40;48.56;39.93;61.37;;
76338;Laerm;20358;50.272;19.026;2024-01-30T04:34:48;49.45;40.64;68.29;;
76338;Laerm;20358;50.272;19.026;2024-01-30T04:37:55;49.53;40.66;60.05;;
76338;Laerm;20358;50.272;19.026;2024-01-30T04:41:03;51.69;40.82;63.25;;
76338;Laerm;20358;50.272;19.026;2024-01-30T04:44:12;50.80;41.77;60.85;;
76338;Laerm;20358;50.272;19.026;2024-01-30T04:47:20;49.03;41.91;58.64;;
76338;Laerm;20358;50.272;19.026;2024-01-30T04:50:27;52.37;42.42;63.72;;
76338;Laerm;20358;50.272;19.026;2024-01-30T04:53:34;50.12;40.24;61.37;;
76338;Laerm;20358;50.272;19.026;2024-01-30T04:56:43;48.92;41.08;59.06;;
76338;Laerm;20358;50.272;19.026;2024-01-30T04:59:53;53.53;43.14;66.91;;
76338;Laerm;20358;50.272;19.026;2024-01-30T05:03:00;48.91;40.85;57.74;;
76338;Laerm;20358;50.272;19.026;2024-01-30T05:06:07;49.89;43.25;58.36;;
76338;Laerm;20358;50.272;19.026;2024-01-30T05:09:15;48.81;41.67;59.02;;
76338;Laerm;20358;50.272;19.026;2024-01-30T05:12:23;52.92;40.92;66.71;;
76338;Laerm;20358;50.272;19.026;2024-01-30T05:15:32;54.61;45.65;66.63;;
76338;Laerm;20358;50.272;19.026;2024-01-30T05:18:40;51.37;43.01;60.96;;
76338;Laerm;20358;50.272;19.026;2024-01-30T05:21:47;51.60;44.40;61.00;;
76338;Laerm;20358;50.272;19.026;2024-01-30T05:24:55;50.66;42.73;60.59;;
76338;Laerm;20358;50.272;19.026;2024-01-30T05:28:01;54.67;43.95;70.07;;
76338;Laerm;20358;50.272;19.026;2024-01-30T05:31:11;51.62;44.07;60.48;;
76338;Laerm;20358;50.272;19.026;2024-01-30T05:34:17;50.83;44.41;61.07;;
76338;Laerm;20358;50.272;19.026;2024-01-30T05:37:25;54.10;45.95;67.66;;
76338;Laerm;20358;50.272;19.026;2024-01-30T05:40:31;51.65;45.02;60.73;;
76338;Laerm;20358;50.272;19.026;2024-01-30T05:43:39;53.95;45.00;67.46;;
76338;Laerm;20358;50.272;19.026;2024-01-30T05:46:48;51.95;42.83;60.00;;
76338;Laerm;20358;50.272;19.026;2024-01-30T05:49:55;53.92;44.32;67.09;;
76338;Laerm;20358;50.272;19.026;2024-01-30T05:53:02;52.06;43.45;62.43;;
76338;Laerm;20358;50.272;19.026;2024-01-30T05:56:10;55.17;46.85;70.13;;
76338;Laerm;20358;50.272;19.026;2024-01-30T05:59:16;54.70;46.48;67.42;;
76338;Laerm;20358;50.272;19.026;2024-01-30T06:02:26;51.97;44.33;61.41;;
76338;Laerm;20358;50.272;19.026;2024-01-30T06:05:32;52.96;44.17;62.17;;
76338;Laerm;20358;50.272;19.026;2024-01-30T06:08:40;52.40;45.39;64.12;;
76338;Laerm;20358;50.272;19.026;2024-01-30T06:11:46;53.95;44.66;70.25;;
76338;Laerm;20358;50.272;19.026;2024-01-30T06:14:55;53.11;45.99;64.17;;
76338;Laerm;20358;50.272;19.026;2024-01-30T06:18:05;52.00;43.94;58.91;;
76338;Laerm;20358;50.272;19.026;2024-01-30T06:21:13;55.04;46.74;69.96;;
76338;Laerm;20358;50.272;19.026;2024-01-30T06:24:20;52.78;46.54;63.82;;
76338;Laerm;20358;50.272;19.026;2024-01-30T06:27:27;53.88;47.12;66.34;;
76338;Laerm;20358;50.272;19.026;2024-01-30T06:30:33;53.47;45.25;61.53;;
76338;Laerm;20358;50.272;19.026;2024-01-30T06:33:46;52.85;44.90;62.39;;
76338;Laerm;20358;50.272;19.026;2024-01-30T06:36:52;53.33;45.90;61.22;;
76338;Laerm;20358;50.272;19.026;2024-01-30T06:40:00;52.96;45.39;63.48;;
76338;Laerm;20358;50.272;19.026;2024-01-30T06:43:07;53.06;48.57;62.45;;
76338;Laerm;20358;50.272;19.026;2024-01-30T06:46:15;53.89;44.52;64.60;;
76338;Laerm;20358;50.272;19.026;2024-01-30T06:49:24;52.88;45.33;64.79;;
76338;Laerm;20358;50.272;19.026;2024-01-30T06:52:32;54.03;48.09;64.28;;
76338;Laerm;20358;50.272;19.026;2024-01-30T06:55:38;52.95;45.14;61.59;;
76338;Laerm;20358;50.272;19.026;2024-01-30T06:58:46;53.95;47.65;60.95;;
76338;Laerm;20358;50.272;19.026;2024-01-30T07:01:52;52.16;44.77;66.78;;
76338;Laerm;20358;50.272;19.026;2024-01-30T07:05:03;52.72;43.85;64.82;;
76338;Laerm;20358;50.272;19.026;2024-01-30T07:08:10;51.87;44.19;66.71;;
76338;Laerm;20358;50.272;19.026;2024-01-30T07:11:22;52.80;46.25;60.07;;
76338;Laerm;20358;50.272;19.026;2024-01-30T07:14:30;53.00;46.93;62.15;;
76338;Laerm;20358;50.272;19.026;2024-01-30T07:17:37;52.17;44.91;60.87;;
76338;Laerm;20358;50.272;19.026;2024-01-30T07:20:47;53.06;44.88;64.91;;
76338;Laerm;20358;50.272;19.026;2024-01-30T07:23:54;52.01;46.00;70.12;;
76338;Laerm;20358;50.272;19.026;2024-01-30T07:27:01;54.68;46.24;68.00;;
76338;Laerm;20358;50.272;19.026;2024-01-30T07:30:09;54.25;45.69;63.90;;
76338;Laerm;20358;50.272;19.026;2024-01-30T07:33:16;56.68;46.21;69.27;;
76338;Laerm;20358;50.272;19.026;2024-01-30T07:36:27;52.29;44.98;59.92;;
76338;Laerm;20358;50.272;19.026;2024-01-30T07:39:33;55.11;45.69;67.47;;
76338;Laerm;20358;50.272;19.026;2024-01-30T07:42:43;51.07;43.91;63.20;;
76338;Laerm;20358;50.272;19.026;2024-01-30T07:45:50;52.86;43.99;62.54;;
76338;Laerm;20358;50.272;19.026;2024-01-30T07:48:58;52.07;45.23;61.41;;
76338;Laerm;20358;50.272;19.026;2024-01-30T07:52:07;57.06;44.14;72.46;;
76338;Laerm;20358;50.272;19.026;2024-01-30T07:55:15;53.15;46.64;63.91;;
76338;Laerm;20358;50.272;19.026;2024-01-30T07:58:23;54.54;48.37;65.00;;
76338;Laerm;20358;50.272;19.026;2024-01-30T08:01:32;51.62;43.64;59.91;;
76338;Laerm;20358;50.272;19.026;2024-01-30T08:04:39;52.09;45.02;60.36;;
76338;Laerm;20358;50.272;19.026;2024-01-30T08:07:49;52.66;43.86;72.13;;
76338;Laerm;20358;50.272;19.026;2024-01-30T08:10:56;52.06;42.48;64.15;;
76338;Laerm;20358;50.272;19.026;2024-01-30T08:14:04;50.89;44.79;60.53;;
76338;Laerm;20358;50.272;19.026;2024-01-30T08:17:10;52.34;43.13;68.20;;
76338;Laerm;20358;50.272;19.026;2024-01-30T08:20:18;52.10;43.83;62.64;;
76338;Laerm;20358;50.272;19.026;2024-01-30T08:23:27;53.72;43.02;66.80;;
76338;Laerm;20358;50.272;19.026;2024-01-30T08:26:35;55.05;44.83;70.45;;
76338;Laerm;20358;50.272;19.026;2024-01-30T08:29:41;52.60;44.32;61.08;;
76338;Laerm;20358;50.272;19.026;2024-01-30T08:32:49;52.49;42.65;72.55;;
76338;Laerm;20358;50.272;19.026;2024-01-30T08:35:55;59.16;43.04;82.59;;
76338;Laerm;20358;50.272;19.026;2024-01-30T08:39:05;53.07;43.59;72.63;;
76338;Laerm;20358;50.272;19.026;2024-01-30T08:42:12;52.93;45.16;68.06;;
76338;Laerm;20358;50.272;19.026;2024-01-30T08:45:20;52.84;45.26;62.10;;
76338;Laerm;20358;50.272;19.026;2024-01-30T08:48:26;51.40;42.61;63.08;;
76338;Laerm;20358;50.272;19.026;2024-01-30T08:51:34;50.95;43.33;60.23;;
76338;Laerm;20358;50.272;19.026;2024-01-30T08:54:43;53.10;43.48;65.74;;
76338;Laerm;20358;50.272;19.026;2024-01-30T08:57:51;52.69;43.24;65.39;;
76338;Laerm;20358;50.272;19.026;2024-01-30T09:00:58;51.48;41.36;62.33;;
76338;Laerm;20358;50.272;19.026;2024-01-30T09:04:05;52.03;41.82;67.94;;
76338;Laerm;20358;50.272;19.026;2024-01-30T09:07:12;52.31;44.08;63.17;;
76338;Laerm;20358;50.272;19.026;2024-01-30T09:10:22;51.12;42.76;62.52;;
76338;Laerm;20358;50.272;19.026;2024-01-30T09:13:29;52.48;41.17;68.52;;
76338;Laerm;20358;50.272;19.026;2024-01-30T09:16:36;50.35;40.54;60.52;;
76338;Laerm;20358;50.272;19.026;2024-01-30T09:19:43;52.35;40.88;66.77;;
76338;Laerm;20358;50.272;19.026;2024-01-30T09:22:51;52.24;43.32;64.46;;
76338;Laerm;20358;50.272;19.026;2024-01-30T09:26:00;52.47;43.54;64.04;;
76338;Laerm;20358;50.272;19.026;2024-01-30T09:29:08;52.74;42.96;67.47;;
76338;Laerm;20358;50.272;19.026;2024-01-30T09:32:15;52.91;41.93;67.40;;
76338;Laerm;20358;50.272;19.026;2024-01-30T09:35:23;53.11;44.76;66.54;;
76338;Laerm;20358;50.272;19.026;2024-01-30T09:38:29;53.72;41.07;63.61;;
76338;Laerm;20358;50.272;19.026;2024-01-30T09:41:48;54.64;43.17;67.17;;
76338;Laerm;20358;50.272;19.026;2024-01-30T09:44:56;51.05;44.28;62.28;;
76338;Laerm;20358;50.272;19.026;2024-01-30T09:48:05;51.50;43.06;60.22;;
76338;Laerm;20358;50.272;19.026;2024-01-30T09:51:15;52.76;44.80;61.45;;
76338;Laerm;20358;50.272;19.026;2024-01-30T09:54:24;53.45;43.02;73.69;;
76338;Laerm;20358;50.272;19.026;2024-01-30T09:57:34;53.50;43.55;69.08;;
76338;Laerm;20358;50.272;19.026;2024-01-30T10:00:42;52.32;45.06;62.59;;
76338;Laerm;20358;50.272;19.026;2024-01-30T10:03:51;50.33;42.21;62.59;;
76338;Laerm;20358;50.272;19.026;2024-01-30T10:07:02;52.54;46.55;62.36;;
76338;Laerm;20358;50.272;19.026;2024-01-30T10:10:09;52.61;45.16;61.67;;
76338;Laerm;20358;50.272;19.026;2024-01-30T10:13:19;52.69;43.16;66.44;;
76338;Laerm;20358;50.272;19.026;2024-01-30T10:16:26;52.43;45.76;67.10;;
76338;Laerm;20358;50.272;19.026;2024-01-30T10:19:34;51.70;41.31;62.77;;
76338;Laerm;20358;50.272;19.026;2024-01-30T10:22:41;52.53;44.19;66.96;;
76338;Laerm;20358;50.272;19.026;2024-01-30T10:25:52;52.94;44.21;67.82;;
76338;Laerm;20358;50.272;19.026;2024-01-30T10:29:01;52.68;45.25;64.05;;
76338;Laerm;20358;50.272;19.026;2024-01-30T10:32:09;52.36;42.26;66.03;;
76338;Laerm;20358;50.272;19.026;2024-01-30T10:35:16;52.45;44.86;62.15;;
76338;Laerm;20358;50.272;19.026;2024-01-30T10:38:29;51.04;43.91;60.47;;
76338;Laerm;20358;50.272;19.026;2024-01-30T10:41:44;53.64;45.91;64.60;;
76338;Laerm;20358;50.272;19.026;2024-01-30T10:45:06;51.64;44.70;65.69;;
76338;Laerm;20358;50.272;19.026;2024-01-30T10:48:24;52.54;44.93;62.86;;
76338;Laerm;20358;50.272;19.026;2024-01-30T10:51:37;52.63;45.57;64.45;;
76338;Laerm;20358;50.272;19.026;2024-01-30T10:54:45;52.01;42.66;62.84;;
76338;Laerm;20358;50.272;19.026;2024-01-30T10:57:53;52.93;42.78;68.33;;
76338;Laerm;20358;50.272;19.026;2024-01-30T11:01:05;52.57;42.68;61.26;;
76338;Laerm;20358;50.272;19.026;2024-01-30T11:04:13;52.82;42.71;70.79;;
76338;Laerm;20358;50.272;19.026;2024-01-30T11:07:26;52.87;45.67;68.81;;
76338;Laerm;20358;50.272;19.026;2024-01-30T11:10:44;52.35;43.64;62.49;;
76338;Laerm;20358;50.272;19.026;2024-01-30T11:13:51;51.97;41.75;61.59;;
76338;Laerm;20358;50.272;19.026;2024-01-30T11:17:03;54.22;45.83;75.20;;
76338;Laerm;20358;50.272;19.026;2024-01-30T11:20:11;52.60;42.76;71.83;;
76338;Laerm;20358;50.272;19.026;2024-01-30T11:23:23;53.76;41.77;67.51;;
76338;Laerm;20358;50.272;19.026;2024-01-30T11:26:31;52.83;42.57;67.32;;
76338;Laerm;20358;50.272;19.026;2024-01-30T11:29:40;53.79;42.79;74.41;;
76338;Laerm;20358;50.272;19.026;2024-01-30T11:33:02;53.37;42.20;71.49;;
76338;Laerm;20358;50.272;19.026;2024-01-30T11:36:15;52.67;45.62;71.51;;
76338;Laerm;20358;50.272;19.026;2024-01-30T11:39:24;55.53;45.34;74.55;;
76338;Laerm;20358;50.272;19.026;2024-01-30T11:42:32;56.73;44.71;78.72;;
76338;Laerm;20358;50.272;19.026;2024-01-30T11:45:42;52.75;42.93;61.61;;
76338;Laerm;20358;50.272;19.026;2024-01-30T11:48:53;57.26;44.79;70.26;;
76338;Laerm;20358;50.272;19.026;2024-01-30T11:51:59;52.27;45.18;65.10;;
76338;Laerm;20358;50.272;19.026;2024-01-30T11:55:08;51.65;42.14;64.89;;
76338;Laerm;20358;50.272;19.026;2024-01-30T11:58:15;53.94;44.21;69.22;;
76338;Laerm;20358;50.272;19.026;2024-01-30T12:01:23;51.39;43.47;61.18;;
76338;Laerm;20358;50.272;19.026;2024-01-30T12:04:36;51.88;41.85;63.04;;
76338;Laerm;20358;50.272;19.026;2024-01-30T12:07:44;56.00;42.63;72.32;;
76338;Laerm;20358;50.272;19.026;2024-01-30T12:10:59;51.80;44.03;58.90;;
76338;Laerm;20358;50.272;19.026;2024-01-30T12:14:10;53.19;44.79;65.63;;
76338;Laerm;20358;50.272;19.026;2024-01-30T12:17:25;52.28;43.54;63.23;;
76338;Laerm;20358;50.272;19.026;2024-01-30T12:20:34;52.48;45.71;62.07;;
76338;Laerm;20358;50.272;19.026;2024-01-30T12:23:41;53.76;43.50;68.21;;
76338;Laerm;20358;50.272;19.026;2024-01-30T12:26:49;53.24;44.53;66.33;;
76338;Laerm;20358;50.272;19.026;2024-01-30T12:29:57;53.22;43.42;67.55;;
76338;Laerm;20358;50.272;19.026;2024-01-30T12:33:04;52.51;42.16;70.13;;
76338;Laerm;20358;50.272;19.026;2024-01-30T12:36:17;51.78;44.73;62.22;;
76338;Laerm;20358;50.272;19.026;2024-01-30T12:39:24;50.49;42.48;58.42;;
76338;Laerm;20358;50.272;19.026;2024-01-30T12:42:31;53.58;41.93;74.21;;
76338;Laerm;20358;50.272;19.026;2024-01-30T12:45:38;52.98;43.85;71.73;;
76338;Laerm;20358;50.272;19.026;2024-01-30T12:48:44;55.81;42.82;76.27;;
76338;Laerm;20358;50.272;19.026;2024-01-30T12:51:55;54.53;44.37;74.90;;
76338;Laerm;20358;50.272;19.026;2024-01-30T12:55:02;52.20;41.91;71.16;;
76338;Laerm;20358;50.272;19.026;2024-01-30T12:58:10;50.85;42.20;60.09;;
76338;Laerm;20358;50.272;19.026;2024-01-30T13:01:17;51.79;44.57;60.31;;
76338;Laerm;20358;50.272;19.026;2024-01-30T13:04:25;53.36;43.25;67.98;;
76338;Laerm;20358;50.272;19.026;2024-01-30T13:07:54;54.44;45.80;69.44;;
76338;Laerm;20358;50.272;19.026;2024-01-30T13:11:07;50.34;42.70;59.67;;
76338;Laerm;20358;50.272;19.026;2024-01-30T13:14:24;52.64;43.41;64.96;;
76338;Laerm;20358;50.272;19.026;2024-01-30T13:17:32;52.77;42.73;64.45;;
76338;Laerm;20358;50.272;19.026;2024-01-30T13:20:39;52.75;43.79;64.32;;
76338;Laerm;20358;50.272;19.026;2024-01-30T13:23:48;53.91;44.76;65.50;;
76338;Laerm;20358;50.272;19.026;2024-01-30T13:26:57;52.86;47.45;64.36;;
76338;Laerm;20358;50.272;19.026;2024-01-30T13:30:07;55.73;41.79;78.33;;
76338;Laerm;20358;50.272;19.026;2024-01-30T13:33:14;54.51;45.01;70.74;;
76338;Laerm;20358;50.272;19.026;2024-01-30T13:36:22;52.72;43.12;65.17;;
76338;Laerm;20358;50.272;19.026;2024-01-30T13:39:31;54.33;46.89;68.67;;
76338;Laerm;20358;50.272;19.026;2024-01-30T13:42:42;54.56;45.21;67.01;;
76338;Laerm;20358;50.272;19.026;2024-01-30T13:45:50;55.23;44.46;68.28;;
76338;Laerm;20358;50.272;19.026;2024-01-30T13:48:59;53.91;43.80;67.59;;
76338;Laerm;20358;50.272;19.026;2024-01-30T13:52:07;55.36;45.90;74.16;;
76338;Laerm;20358;50.272;19.026;2024-01-30T13:55:17;53.90;44.92;69.59;;
76338;Laerm;20358;50.272;19.026;2024-01-30T13:58:25;53.43;45.36;61.03;;
76338;Laerm;20358;50.272;19.026;2024-01-30T14:01:33;53.88;45.56;66.38;;
76338;Laerm;20358;50.272;19.026;2024-01-30T14:04:44;53.11;43.56;63.37;;
76338;Laerm;20358;50.272;19.026;2024-01-30T14:07:53;55.64;45.47;72.48;;
76338;Laerm;20358;50.272;19.026;2024-01-30T14:11:04;52.71;45.06;62.24;;
76338;Laerm;20358;50.272;19.026;2024-01-30T14:14:11;53.71;47.01;66.06;;
76338;Laerm;20358;50.272;19.026;2024-01-30T14:17:20;53.89;44.08;66.06;;
76338;Laerm;20358;50.272;19.026;2024-01-30T14:20:28;53.63;45.34;64.60;;
76338;Laerm;20358;50.272;19.026;2024-01-30T14:23:35;53.06;45.36;68.85;;
76338;Laerm;20358;50.272;19.026;2024-01-30T14:26:45;55.58;45.28;69.68;;
76338;Laerm;20358;50.272;19.026;2024-01-30T14:29:52;52.86;45.23;62.33;;
76338;Laerm;20358;50.272;19.026;2024-01-30T14:32:59;54.63;44.69;68.21;;
76338;Laerm;20358;50.272;19.026;2024-01-30T14:36:07;53.78;45.54;65.60;;
76338;Laerm;20358;50.272;19.026;2024-01-30T14:39:15;54.88;44.85;67.95;;
76338;Laerm;20358;50.272;19.026;2024-01-30T14:42:24;52.93;45.33;62.70;;
76338;Laerm;20358;50.272;19.026;2024-01-30T14:45:35;54.42;46.32;66.28;;
76338;Laerm;20358;50.272;19.026;2024-01-30T14:48:41;53.70;45.79;61.51;;
76338;Laerm;20358;50.272;19.026;2024-01-30T14:51:49;54.85;47.30;67.01;;
76338;Laerm;20358;50.272;19.026;2024-01-30T14:54:56;54.23;45.48;63.29;;
76338;Laerm;20358;50.272;19.026;2024-01-30T14:58:06;53.99;47.37;63.90;;
76338;Laerm;20358;50.272;19.026;2024-01-30T15:01:15;53.05;45.65;62.89;;
76338;Laerm;20358;50.272;19.026;2024-01-30T15:04:23;54.42;45.68;62.99;;
76338;Laerm;20358;50.272;19.026;2024-01-30T15:07:31;56.61;48.29;73.20;;
76338;Laerm;20358;50.272;19.026;2024-01-30T15:10:47;53.62;45.19;62.48;;
76338;Laerm;20358;50.272;19.026;2024-01-30T15:14:01;53.51;45.47;67.86;;
76338;Laerm;20358;50.272;19.026;2024-01-30T15:17:09;53.90;45.44;67.18;;
76338;Laerm;20358;50.272;19.026;2024-01-30T15:20:19;53.70;45.75;63.98;;
76338;Laerm;20358;50.272;19.026;2024-01-30T15:23:29;53.67;45.41;63.03;;
76338;Laerm;20358;50.272;19.026;2024-01-30T15:26:36;54.95;45.38;68.59;;
76338;Laerm;20358;50.272;19.026;2024-01-30T15:29:46;52.70;43.96;63.03;;
76338;Laerm;20358;50.272;19.026;2024-01-30T15:32:53;52.57;43.40;66.91;;
76338;Laerm;20358;50.272;19.026;2024-01-30T15:36:02;53.29;44.08;62.44;;
76338;Laerm;20358;50.272;19.026;2024-01-30T15:39:09;53.64;43.25;69.96;;
76338;Laerm;20358;50.272;19.026;2024-01-30T15:42:19;52.61;45.05;67.86;;
76338;Laerm;20358;50.272;19.026;2024-01-30T15:45:29;52.00;44.16;58.98;;
76338;Laerm;20358;50.272;19.026;2024-01-30T15:48:37;52.14;43.39;64.56;;
76338;Laerm;20358;50.272;19.026;2024-01-30T15:51:44;53.04;44.43;73.79;;
76338;Laerm;20358;50.272;19.026;2024-01-30T15:54:51;52.56;44.77;72.35;;
76338;Laerm;20358;50.272;19.026;2024-01-30T15:57:58;51.83;43.87;66.26;;
76338;Laerm;20358;50.272;19.026;2024-01-30T16:01:08;52.01;43.04;67.58;;
76338;Laerm;20358;50.272;19.026;2024-01-30T16:04:15;52.35;43.66;70.40;;
76338;Laerm;20358;50.272;19.026;2024-01-30T16:07:22;52.23;43.86;64.54;;
76338;Laerm;20358;50.272;19.026;2024-01-30T16:10:29;52.36;45.45;66.47;;
76338;Laerm;20358;50.272;19.026;2024-01-30T16:13:37;52.24;44.58;64.09;;
76338;Laerm;20358;50.272;19.026;2024-01-30T16:16:47;51.89;42.96;63.78;;
76338;Laerm;20358;50.272;19.026;2024-01-30T16:19:54;53.36;43.91;66.07;;
76338;Laerm;20358;50.272;19.026;2024-01-30T16:23:04;55.46;44.25;67.53;;
76338;Laerm;20358;50.272;19.026;2024-01-30T16:26:12;52.10;43.97;63.04;;
76338;Laerm;20358;50.272;19.026;2024-01-30T16:29:19;52.72;44.40;60.78;;
76338;Laerm;20358;50.272;19.026;2024-01-30T16:32:29;50.74;43.58;58.73;;
76338;Laerm;20358;50.272;19.026;2024-01-30T16:35:37;52.08;44.15;61.64;;
76338;Laerm;20358;50.272;19.026;2024-01-30T16:38:50;51.36;43.64;61.07;;
76338;Laerm;20358;50.272;19.026;2024-01-30T16:41:57;51.73;42.89;62.82;;
76338;Laerm;20358;50.272;19.026;2024-01-30T16:45:05;51.45;43.70;64.23;;
76338;Laerm;20358;50.272;19.026;2024-01-30T16:48:15;51.54;43.30;64.44;;
76338;Laerm;20358;50.272;19.026;2024-01-30T16:51:25;52.44;43.81;62.76;;
76338;Laerm;20358;50.272;19.026;2024-01-30T16:54:31;51.10;42.69;62.65;;
76338;Laerm;20358;50.272;19.026;2024-01-30T16:57:38;59.05;46.63;80.53;;
76338;Laerm;20358;50.272;19.026;2024-01-30T17:00:46;53.35;45.06;66.08;;
76338;Laerm;20358;50.272;19.026;2024-01-30T17:03:56;52.29;43.10;68.99;;
76338;Laerm;20358;50.272;19.026;2024-01-30T17:07:03;51.38;43.11;61.18;;
76338;Laerm;20358;50.272;19.026;2024-01-30T17:10:11;52.39;42.56;62.42;;
76338;Laerm;20358;50.272;19.026;2024-01-30T17:13:20;61.73;43.99;81.35;;
76338;Laerm;20358;50.272;19.026;2024-01-30T17:16:27;51.57;42.72;65.24;;
76338;Laerm;20358;50.272;19.026;2024-01-30T17:19:37;50.81;43.12;60.02;;